Bearcreek, Montana
Current Conditions -  °F | °C
As of 9:15 AM on Thursday 18 Dec 2014 (Local Time) from KPOY Reporting Station
Clear Clear  
Wind Chill:   Ceiling: Unl
Heat Index: 18°   Visibility: 10mi
Dew Point: 14°   Wind: 13mph
Humidity: 86%   Direction: 130°SE
Pressure: 30"   Gusts: NA
Location:  45.16°N, 109.16°W
Report Text: KPOY 181615Z AUTO 13011KT 10SM CLR M08/M10 A3000 RMK AO2
Loading
Personal Weather Stations






























Interactive Weather Map New forecast layout! Learn more

10-Day Weather Forecast

Advertisements
Track Severe Weather on mobile